Aeroporto :
LOGIN :

Iscrizione | Disclaimer

   EN    FR    IT 

 










Sommario :    VFR   VFR Marginale   IFR   IFR Intensivo   IFR Molto Intensivo
Visibilità : 
Base nubi : 
>= 8 km
>= 3000ft
5 / 8 km
1000 / 3000 ft
1500m / 5 km
500 / 1000 ft
800 / 1500m
200 / 500 ft
< 800m
< 200 ft
Simboli :   Temporali  Nebbia  Neve Forte  Precipitazioni Forti  Vento > 20 kt
SIGMETs :   Varie  Temporali  Ghiacco  Turbolenza  Onda orograficha  Ceneri Vulcaniche






- Altitudine del aeroporto : 183 ft
- Codice IATA : HAJ


EDDV - Hanover/Langenhagen Int.

ULTIMO METAR :
  • 112150Z 20003KT 160V230 9000 -RADZ OVC009 03/02 Q1004

METARs OBSOLETI :
  • 112120Z 19004KT 160V220 9000 -RADZ OVC011 03/02 Q1004
  • 112050Z 18004KT 150V210 9999 -RADZ BKN012 03/02 Q1004 TEMPO BKN008
  • 112020Z 17004KT 9999 -RADZ BKN012 03/02 Q1004 RERA TEMPO BKN008
  • 111950Z 18004KT 150V210 9000 RADZ FEW008 OVC013 03/02 Q1004 TEMPO BKN008
  • 111920Z 19003KT 160V220 9999 RADZ SCT013 BKN018 03/02 Q1004 BECMG NSW

TAF TAF EDDV
Valido dal 11 a 18 ore il 12 a 18 ore UTC


111700Z 1118/1218 19006KT 9999 SCT012 BKN020
TEMPO 1118/1209 4500 BR BKN012
PROB30
TEMPO 1118/1124 RADZ BKN007



MetMap, La meteo Aeronautica in un colpo d'occhio ! - Copyright ORBIFLY Dicembre 2007 - Disclaimer

ORBIFLY MET'MAP TEAM :

Programmazione e sviluppo : Alexandra Zaïnal
Concezione : Baudouin d'Aumeries
Aiuto per la programmazione : Marc-Olivier Méhu
Supporto tecnico e logistico : Manuel Goepfert
Aiuto per la traduzione : Arnaldo La Scala

Contatto : metmap@orbifly.com




FONTI E CREDITI :

   NOAA